sensor_id;sensor_type;location;lat;lon;timestamp;P1;durP1;ratioP1;P2;durP2;ratioP2
45077;SDS011;60508;42.622;25.416;2024-02-21T00:02:25;42.20;;;23.17;;
45077;SDS011;60508;42.622;25.416;2024-02-21T00:05:11;39.28;;;24.10;;
45077;SDS011;60508;42.622;25.416;2024-02-21T00:07:38;39.97;;;22.67;;
45077;SDS011;60508;42.622;25.416;2024-02-21T00:10:24;49.00;;;25.63;;
45077;SDS011;60508;42.622;25.416;2024-02-21T00:12:51;38.85;;;21.92;;
45077;SDS011;60508;42.622;25.416;2024-02-21T00:15:18;34.92;;;22.20;;
45077;SDS011;60508;42.622;25.416;2024-02-21T00:17:44;42.72;;;23.23;;
45077;SDS011;60508;42.622;25.416;2024-02-21T00:20:11;38.08;;;22.88;;
45077;SDS011;60508;42.622;25.416;2024-02-21T00:22:37;39.88;;;23.13;;
45077;SDS011;60508;42.622;25.416;2024-02-21T00:25:23;42.67;;;23.85;;
45077;SDS011;60508;42.622;25.416;2024-02-21T00:27:50;49.05;;;24.27;;
45077;SDS011;60508;42.622;25.416;2024-02-21T00:30:16;40.20;;;22.60;;
45077;SDS011;60508;42.622;25.416;2024-02-21T00:33:03;36.20;;;19.23;;
45077;SDS011;60508;42.622;25.416;2024-02-21T00:35:29;39.53;;;22.23;;
45077;SDS011;60508;42.622;25.416;2024-02-21T00:38:16;42.55;;;23.55;;
45077;SDS011;60508;42.622;25.416;2024-02-21T00:40:42;41.20;;;23.05;;
45077;SDS011;60508;42.622;25.416;2024-02-21T00:43:08;48.08;;;24.08;;
45077;SDS011;60508;42.622;25.416;2024-02-21T00:45:55;43.35;;;23.52;;
45077;SDS011;60508;42.622;25.416;2024-02-21T00:48:22;43.22;;;23.45;;
45077;SDS011;60508;42.622;25.416;2024-02-21T00:50:48;45.58;;;24.83;;
45077;SDS011;60508;42.622;25.416;2024-02-21T00:53:35;49.17;;;23.25;;
45077;SDS011;60508;42.622;25.416;2024-02-21T00:56:07;42.75;;;22.38;;
45077;SDS011;60508;42.622;25.416;2024-02-21T01:01:02;40.55;;;20.25;;
45077;SDS011;60508;42.622;25.416;2024-02-21T01:03:29;40.65;;;22.38;;
45077;SDS011;60508;42.622;25.416;2024-02-21T01:05:55;49.25;;;25.60;;
45077;SDS011;60508;42.622;25.416;2024-02-21T01:08:22;40.30;;;22.75;;
45077;SDS011;60508;42.622;25.416;2024-02-21T01:10:48;42.45;;;23.35;;
45077;SDS011;60508;42.622;25.416;2024-02-21T01:13:34;39.13;;;22.25;;
45077;SDS011;60508;42.622;25.416;2024-02-21T01:16:01;40.95;;;22.65;;
45077;SDS011;60508;42.622;25.416;2024-02-21T01:18:27;38.10;;;23.05;;
45077;SDS011;60508;42.622;25.416;2024-02-21T01:21:13;45.13;;;24.48;;
45077;SDS011;60508;42.622;25.416;2024-02-21T01:23:40;40.67;;;22.45;;
45077;SDS011;60508;42.622;25.416;2024-02-21T01:26:26;38.22;;;22.13;;
45077;SDS011;60508;42.622;25.416;2024-02-21T01:28:53;35.40;;;21.08;;
45077;SDS011;60508;42.622;25.416;2024-02-21T01:31:19;43.03;;;23.05;;
45077;SDS011;60508;42.622;25.416;2024-02-21T01:33:46;45.92;;;24.60;;
45077;SDS011;60508;42.622;25.416;2024-02-21T01:36:12;47.75;;;26.05;;
45077;SDS011;60508;42.622;25.416;2024-02-21T01:38:59;40.33;;;22.50;;
45077;SDS011;60508;42.622;25.416;2024-02-21T01:41:25;41.83;;;22.52;;
45077;SDS011;60508;42.622;25.416;2024-02-21T01:43:51;40.70;;;22.77;;
45077;SDS011;60508;42.622;25.416;2024-02-21T01:46:38;45.15;;;23.80;;
45077;SDS011;60508;42.622;25.416;2024-02-21T01:49:08;43.50;;;23.13;;
45077;SDS011;60508;42.622;25.416;2024-02-21T01:51:39;39.97;;;21.85;;
45077;SDS011;60508;42.622;25.416;2024-02-21T01:54:26;38.00;;;21.15;;
45077;SDS011;60508;42.622;25.416;2024-02-21T01:56:54;39.45;;;20.38;;
45077;SDS011;60508;42.622;25.416;2024-02-21T01:59:41;33.90;;;21.33;;
45077;SDS011;60508;42.622;25.416;2024-02-21T02:02:08;34.78;;;20.50;;
45077;SDS011;60508;42.622;25.416;2024-02-21T02:04:40;43.42;;;22.80;;
45077;SDS011;60508;42.622;25.416;2024-02-21T02:07:20;50.42;;;24.40;;
45077;SDS011;60508;42.622;25.416;2024-02-21T02:09:46;43.63;;;23.48;;
45077;SDS011;60508;42.622;25.416;2024-02-21T02:12:13;42.78;;;22.15;;
45077;SDS011;60508;42.622;25.416;2024-02-21T02:14:39;39.50;;;21.25;;
45077;SDS011;60508;42.622;25.416;2024-02-21T02:17:25;46.22;;;25.65;;
45077;SDS011;60508;42.622;25.416;2024-02-21T02:19:52;44.28;;;24.38;;
45077;SDS011;60508;42.622;25.416;2024-02-21T02:22:21;41.42;;;21.45;;
45077;SDS011;60508;42.622;25.416;2024-02-21T02:25:10;38.33;;;22.10;;
45077;SDS011;60508;42.622;25.416;2024-02-21T02:27:42;39.92;;;22.58;;
45077;SDS011;60508;42.622;25.416;2024-02-21T02:30:33;38.75;;;21.50;;
45077;SDS011;60508;42.622;25.416;2024-02-21T02:33:02;50.25;;;28.38;;
45077;SDS011;60508;42.622;25.416;2024-02-21T02:35:49;42.65;;;23.48;;
45077;SDS011;60508;42.622;25.416;2024-02-21T02:38:16;46.22;;;22.60;;
45077;SDS011;60508;42.622;25.416;2024-02-21T02:41:02;42.10;;;22.17;;
45077;SDS011;60508;42.622;25.416;2024-02-21T02:43:29;38.63;;;21.23;;
45077;SDS011;60508;42.622;25.416;2024-02-21T02:45:56;39.25;;;21.70;;
45077;SDS011;60508;42.622;25.416;2024-02-21T02:48:23;38.33;;;20.90;;
45077;SDS011;60508;42.622;25.416;2024-02-21T02:50:53;35.05;;;20.77;;
45077;SDS011;60508;42.622;25.416;2024-02-21T02:53:23;36.38;;;22.15;;
45077;SDS011;60508;42.622;25.416;2024-02-21T02:55:50;36.33;;;19.67;;
45077;SDS011;60508;42.622;25.416;2024-02-21T02:58:16;39.38;;;21.58;;
45077;SDS011;60508;42.622;25.416;2024-02-21T03:00:43;38.92;;;23.02;;
45077;SDS011;60508;42.622;25.416;2024-02-21T03:03:29;37.92;;;23.67;;
45077;SDS011;60508;42.622;25.416;2024-02-21T03:05:55;47.95;;;23.23;;
45077;SDS011;60508;42.622;25.416;2024-02-21T03:08:22;33.38;;;20.25;;
45077;SDS011;60508;42.622;25.416;2024-02-21T03:10:48;36.60;;;20.27;;
45077;SDS011;60508;42.622;25.416;2024-02-21T03:13:15;39.28;;;21.88;;
45077;SDS011;60508;42.622;25.416;2024-02-21T03:15:41;40.92;;;22.60;;
45077;SDS011;60508;42.622;25.416;2024-02-21T03:18:27;41.05;;;22.85;;
45077;SDS011;60508;42.622;25.416;2024-02-21T03:20:54;53.65;;;27.60;;
45077;SDS011;60508;42.622;25.416;2024-02-21T03:23:20;47.13;;;24.88;;
45077;SDS011;60508;42.622;25.416;2024-02-21T03:26:07;47.53;;;23.83;;
45077;SDS011;60508;42.622;25.416;2024-02-21T03:28:33;41.28;;;21.80;;
45077;SDS011;60508;42.622;25.416;2024-02-21T03:31:19;41.45;;;22.73;;
45077;SDS011;60508;42.622;25.416;2024-02-21T03:33:46;35.60;;;20.33;;
45077;SDS011;60508;42.622;25.416;2024-02-21T03:36:13;39.95;;;21.23;;
45077;SDS011;60508;42.622;25.416;2024-02-21T03:38:41;41.08;;;21.98;;
45077;SDS011;60508;42.622;25.416;2024-02-21T03:41:07;48.88;;;24.45;;
45077;SDS011;60508;42.622;25.416;2024-02-21T03:43:33;51.75;;;29.75;;
45077;SDS011;60508;42.622;25.416;2024-02-21T03:46:20;43.53;;;23.63;;
45077;SDS011;60508;42.622;25.416;2024-02-21T03:48:46;53.67;;;26.85;;
45077;SDS011;60508;42.622;25.416;2024-02-21T03:51:13;47.50;;;24.73;;
45077;SDS011;60508;42.622;25.416;2024-02-21T03:54:00;41.08;;;24.85;;
45077;SDS011;60508;42.622;25.416;2024-02-21T03:56:27;40.97;;;23.05;;
45077;SDS011;60508;42.622;25.416;2024-02-21T03:59:17;53.30;;;24.10;;
45077;SDS011;60508;42.622;25.416;2024-02-21T04:01:52;40.90;;;22.58;;
45077;SDS011;60508;42.622;25.416;2024-02-21T04:04:19;34.38;;;20.90;;
45077;SDS011;60508;42.622;25.416;2024-02-21T04:06:49;38.47;;;21.55;;
45077;SDS011;60508;42.622;25.416;2024-02-21T04:09:36;40.33;;;21.42;;
45077;SDS011;60508;42.622;25.416;2024-02-21T04:12:02;41.67;;;24.15;;
45077;SDS011;60508;42.622;25.416;2024-02-21T04:14:29;41.60;;;24.50;;
45077;SDS011;60508;42.622;25.416;2024-02-21T04:17:15;41.72;;;23.90;;
45077;SDS011;60508;42.622;25.416;2024-02-21T04:19:42;40.13;;;21.10;;
45077;SDS011;60508;42.622;25.416;2024-02-21T04:22:08;38.78;;;24.25;;
45077;SDS011;60508;42.622;25.416;2024-02-21T04:24:34;41.22;;;23.02;;
45077;SDS011;60508;42.622;25.416;2024-02-21T04:27:01;37.58;;;21.45;;
45077;SDS011;60508;42.622;25.416;2024-02-21T04:29:28;39.47;;;22.65;;
45077;SDS011;60508;42.622;25.416;2024-02-21T04:31:56;50.67;;;23.77;;
45077;SDS011;60508;42.622;25.416;2024-02-21T04:34:22;44.42;;;23.05;;
45077;SDS011;60508;42.622;25.416;2024-02-21T04:36:49;44.65;;;23.85;;
45077;SDS011;60508;42.622;25.416;2024-02-21T04:39:15;44.72;;;24.05;;
45077;SDS011;60508;42.622;25.416;2024-02-21T04:42:02;54.13;;;25.63;;
45077;SDS011;60508;42.622;25.416;2024-02-21T04:44:28;44.83;;;23.73;;
45077;SDS011;60508;42.622;25.416;2024-02-21T04:46:55;48.60;;;24.35;;
45077;SDS011;60508;42.622;25.416;2024-02-21T04:49:41;42.17;;;23.17;;
45077;SDS011;60508;42.622;25.416;2024-02-21T04:52:07;42.03;;;23.48;;
45077;SDS011;60508;42.622;25.416;2024-02-21T04:54:34;40.78;;;24.05;;
45077;SDS011;60508;42.622;25.416;2024-02-21T04:59:49;38.05;;;20.98;;
45077;SDS011;60508;42.622;25.416;2024-02-21T05:02:16;48.03;;;23.40;;
45077;SDS011;60508;42.622;25.416;2024-02-21T05:04:42;39.60;;;22.30;;
45077;SDS011;60508;42.622;25.416;2024-02-21T05:07:30;38.15;;;21.83;;
45077;SDS011;60508;42.622;25.416;2024-02-21T05:09:56;40.92;;;23.33;;
45077;SDS011;60508;42.622;25.416;2024-02-21T05:12:22;42.92;;;22.95;;
45077;SDS011;60508;42.622;25.416;2024-02-21T05:14:49;41.88;;;23.83;;
45077;SDS011;60508;42.622;25.416;2024-02-21T05:17:15;44.00;;;22.65;;
45077;SDS011;60508;42.622;25.416;2024-02-21T05:19:42;43.10;;;23.40;;
45077;SDS011;60508;42.622;25.416;2024-02-21T05:22:28;40.85;;;21.55;;
45077;SDS011;60508;42.622;25.416;2024-02-21T05:24:54;57.00;;;24.58;;
45077;SDS011;60508;42.622;25.416;2024-02-21T05:27:21;41.92;;;21.88;;
45077;SDS011;60508;42.622;25.416;2024-02-21T05:29:47;40.20;;;24.05;;
45077;SDS011;60508;42.622;25.416;2024-02-21T05:32:14;43.15;;;22.20;;
45077;SDS011;60508;42.622;25.416;2024-02-21T05:35:00;50.08;;;24.20;;
45077;SDS011;60508;42.622;25.416;2024-02-21T05:37:27;52.13;;;26.40;;
45077;SDS011;60508;42.622;25.416;2024-02-21T05:39:53;37.58;;;21.38;;
45077;SDS011;60508;42.622;25.416;2024-02-21T05:42:20;39.33;;;22.00;;
45077;SDS011;60508;42.622;25.416;2024-02-21T05:45:06;36.47;;;21.08;;
45077;SDS011;60508;42.622;25.416;2024-02-21T05:47:33;44.13;;;22.73;;
45077;SDS011;60508;42.622;25.416;2024-02-21T05:49:59;37.05;;;22.58;;
45077;SDS011;60508;42.622;25.416;2024-02-21T05:52:46;43.80;;;25.83;;
45077;SDS011;60508;42.622;25.416;2024-02-21T05:55:12;44.28;;;25.60;;
45077;SDS011;60508;42.622;25.416;2024-02-21T05:57:58;45.00;;;23.90;;
45077;SDS011;60508;42.622;25.416;2024-02-21T06:00:25;43.83;;;24.67;;
45077;SDS011;60508;42.622;25.416;2024-02-21T06:02:51;48.28;;;24.80;;
45077;SDS011;60508;42.622;25.416;2024-02-21T06:05:38;46.25;;;25.10;;
45077;SDS011;60508;42.622;25.416;2024-02-21T06:08:05;44.53;;;24.60;;
45077;SDS011;60508;42.622;25.416;2024-02-21T06:10:31;52.20;;;26.77;;
45077;SDS011;60508;42.622;25.416;2024-02-21T06:12:57;42.88;;;23.83;;
45077;SDS011;60508;42.622;25.416;2024-02-21T06:15:24;41.13;;;23.40;;
45077;SDS011;60508;42.622;25.416;2024-02-21T06:18:10;43.50;;;22.50;;
45077;SDS011;60508;42.622;25.416;2024-02-21T06:20:36;40.13;;;22.80;;
45077;SDS011;60508;42.622;25.416;2024-02-21T06:23:06;41.13;;;22.58;;
45077;SDS011;60508;42.622;25.416;2024-02-21T06:25:53;42.30;;;23.75;;
45077;SDS011;60508;42.622;25.416;2024-02-21T06:28:19;47.10;;;23.17;;
45077;SDS011;60508;42.622;25.416;2024-02-21T06:30:46;45.63;;;24.42;;
45077;SDS011;60508;42.622;25.416;2024-02-21T06:33:12;44.35;;;24.00;;
45077;SDS011;60508;42.622;25.416;2024-02-21T06:35:59;38.13;;;21.65;;
45077;SDS011;60508;42.622;25.416;2024-02-21T06:38:25;39.42;;;22.20;;
45077;SDS011;60508;42.622;25.416;2024-02-21T06:40:52;44.00;;;24.45;;
45077;SDS011;60508;42.622;25.416;2024-02-21T06:43:20;42.58;;;22.80;;
45077;SDS011;60508;42.622;25.416;2024-02-21T06:46:06;38.70;;;22.55;;
45077;SDS011;60508;42.622;25.416;2024-02-21T06:48:33;37.30;;;21.00;;
45077;SDS011;60508;42.622;25.416;2024-02-21T06:50:59;40.03;;;23.63;;
45077;SDS011;60508;42.622;25.416;2024-02-21T06:53:45;39.58;;;22.90;;
45077;SDS011;60508;42.622;25.416;2024-02-21T06:56:12;47.95;;;22.40;;
45077;SDS011;60508;42.622;25.416;2024-02-21T06:58:38;46.75;;;24.98;;
45077;SDS011;60508;42.622;25.416;2024-02-21T07:01:25;51.25;;;25.27;;
45077;SDS011;60508;42.622;25.416;2024-02-21T07:03:51;48.92;;;25.25;;
45077;SDS011;60508;42.622;25.416;2024-02-21T07:06:17;42.03;;;24.05;;
45077;SDS011;60508;42.622;25.416;2024-02-21T07:09:04;47.20;;;24.60;;
45077;SDS011;60508;42.622;25.416;2024-02-21T07:11:30;44.90;;;22.42;;
45077;SDS011;60508;42.622;25.416;2024-02-21T07:13:57;42.85;;;23.90;;
45077;SDS011;60508;42.622;25.416;2024-02-21T07:16:23;75.82;;;45.22;;
45077;SDS011;60508;42.622;25.416;2024-02-21T07:18:49;55.20;;;29.42;;
45077;SDS011;60508;42.622;25.416;2024-02-21T07:21:36;53.72;;;27.88;;
45077;SDS011;60508;42.622;25.416;2024-02-21T07:24:04;46.08;;;26.60;;
45077;SDS011;60508;42.622;25.416;2024-02-21T07:26:31;51.83;;;27.73;;
45077;SDS011;60508;42.622;25.416;2024-02-21T07:29:17;46.67;;;25.13;;
45077;SDS011;60508;42.622;25.416;2024-02-21T07:31:44;47.83;;;27.10;;
45077;SDS011;60508;42.622;25.416;2024-02-21T07:34:30;47.03;;;26.00;;
45077;SDS011;60508;42.622;25.416;2024-02-21T07:36:57;55.80;;;27.17;;
45077;SDS011;60508;42.622;25.416;2024-02-21T07:39:23;44.42;;;23.48;;
45077;SDS011;60508;42.622;25.416;2024-02-21T07:42:10;44.35;;;24.25;;
45077;SDS011;60508;42.622;25.416;2024-02-21T07:44:36;37.58;;;22.60;;
45077;SDS011;60508;42.622;25.416;2024-02-21T07:47:02;40.67;;;24.23;;
45077;SDS011;60508;42.622;25.416;2024-02-21T07:49:49;40.67;;;23.45;;
45077;SDS011;60508;42.622;25.416;2024-02-21T07:52:15;40.65;;;22.95;;
45077;SDS011;60508;42.622;25.416;2024-02-21T07:55:02;41.72;;;23.23;;
45077;SDS011;60508;42.622;25.416;2024-02-21T07:57:29;39.42;;;21.38;;
45077;SDS011;60508;42.622;25.416;2024-02-21T07:59:55;37.33;;;22.92;;
45077;SDS011;60508;42.622;25.416;2024-02-21T08:02:42;37.28;;;20.17;;
45077;SDS011;60508;42.622;25.416;2024-02-21T08:05:09;39.35;;;22.10;;
45077;SDS011;60508;42.622;25.416;2024-02-21T08:07:38;39.70;;;20.50;;
45077;SDS011;60508;42.622;25.416;2024-02-21T08:10:04;38.22;;;21.23;;
45077;SDS011;60508;42.622;25.416;2024-02-21T08:12:34;40.33;;;20.50;;
45077;SDS011;60508;42.622;25.416;2024-02-21T08:15:01;39.70;;;20.95;;
45077;SDS011;60508;42.622;25.416;2024-02-21T08:17:49;34.92;;;19.60;;
45077;SDS011;60508;42.622;25.416;2024-02-21T08:20:16;33.22;;;19.67;;
45077;SDS011;60508;42.622;25.416;2024-02-21T08:22:42;34.00;;;20.02;;
45077;SDS011;60508;42.622;25.416;2024-02-21T08:25:08;28.55;;;16.73;;
45077;SDS011;60508;42.622;25.416;2024-02-21T08:27:57;37.05;;;19.73;;
45077;SDS011;60508;42.622;25.416;2024-02-21T08:30:24;33.95;;;19.58;;
45077;SDS011;60508;42.622;25.416;2024-02-21T08:32:51;33.22;;;18.92;;
45077;SDS011;60508;42.622;25.416;2024-02-21T08:35:40;35.22;;;19.73;;
45077;SDS011;60508;42.622;25.416;2024-02-21T08:38:06;33.97;;;19.42;;
45077;SDS011;60508;42.622;25.416;2024-02-21T08:40:32;29.65;;;18.30;;
45077;SDS011;60508;42.622;25.416;2024-02-21T08:43:21;30.05;;;18.27;;
45077;SDS011;60508;42.622;25.416;2024-02-21T08:45:47;28.23;;;16.90;;
45077;SDS011;60508;42.622;25.416;2024-02-21T08:48:13;30.00;;;18.63;;
45077;SDS011;60508;42.622;25.416;2024-02-21T08:50:40;25.83;;;18.48;;
45077;SDS011;60508;42.622;25.416;2024-02-21T08:53:06;31.70;;;18.33;;
45077;SDS011;60508;42.622;25.416;2024-02-21T08:55:33;28.90;;;19.88;;
45077;SDS011;60508;42.622;25.416;2024-02-21T08:58:00;30.83;;;18.70;;
45077;SDS011;60508;42.622;25.416;2024-02-21T09:00:26;33.50;;;21.40;;
45077;SDS011;60508;42.622;25.416;2024-02-21T09:02:53;29.23;;;19.80;;
45077;SDS011;60508;42.622;25.416;2024-02-21T09:05:45;31.10;;;19.15;;
45077;SDS011;60508;42.622;25.416;2024-02-21T09:08:15;31.30;;;19.38;;
45077;SDS011;60508;42.622;25.416;2024-02-21T09:10:42;28.52;;;17.95;;
45077;SDS011;60508;42.622;25.416;2024-02-21T09:13:08;29.85;;;18.67;;
45077;SDS011;60508;42.622;25.416;2024-02-21T09:15:35;26.70;;;17.88;;
45077;SDS011;60508;42.622;25.416;2024-02-21T09:18:25;24.02;;;17.70;;
45077;SDS011;60508;42.622;25.416;2024-02-21T09:20:55;22.63;;;17.15;;
45077;SDS011;60508;42.622;25.416;2024-02-21T09:23:42;23.80;;;17.27;;
45077;SDS011;60508;42.622;25.416;2024-02-21T09:26:08;24.40;;;15.02;;
45077;SDS011;60508;42.622;25.416;2024-02-21T09:28:39;23.60;;;16.58;;
45077;SDS011;60508;42.622;25.416;2024-02-21T09:31:25;26.33;;;16.42;;
45077;SDS011;60508;42.622;25.416;2024-02-21T09:33:52;19.85;;;15.13;;
45077;SDS011;60508;42.622;25.416;2024-02-21T09:36:18;22.92;;;14.48;;
45077;SDS011;60508;42.622;25.416;2024-02-21T09:38:45;30.40;;;19.30;;
45077;SDS011;60508;42.622;25.416;2024-02-21T09:41:15;23.13;;;17.00;;
45077;SDS011;60508;42.622;25.416;2024-02-21T09:43:45;23.50;;;16.08;;
45077;SDS011;60508;42.622;25.416;2024-02-21T09:46:18;27.73;;;16.00;;
45077;SDS011;60508;42.622;25.416;2024-02-21T09:49:13;22.42;;;16.33;;
45077;SDS011;60508;42.622;25.416;2024-02-21T09:52:07;26.20;;;15.77;;
45077;SDS011;60508;42.622;25.416;2024-02-21T09:54:35;26.95;;;17.25;;
45077;SDS011;60508;42.622;25.416;2024-02-21T09:57:21;33.22;;;18.17;;
45077;SDS011;60508;42.622;25.416;2024-02-21T09:59:49;26.98;;;16.70;;
45077;SDS011;60508;42.622;25.416;2024-02-21T10:02:16;25.48;;;15.57;;
45077;SDS011;60508;42.622;25.416;2024-02-21T10:05:03;23.45;;;14.90;;
45077;SDS011;60508;42.622;25.416;2024-02-21T10:07:30;28.67;;;15.48;;
45077;SDS011;60508;42.622;25.416;2024-02-21T10:10:18;20.90;;;13.40;;
45077;SDS011;60508;42.622;25.416;2024-02-21T10:15:21;25.25;;;15.25;;
45077;SDS011;60508;42.622;25.416;2024-02-21T10:17:48;17.92;;;11.65;;
45077;SDS011;60508;42.622;25.416;2024-02-21T10:20:35;15.18;;;9.98;;
45077;SDS011;60508;42.622;25.416;2024-02-21T10:23:07;16.25;;;9.68;;
45077;SDS011;60508;42.622;25.416;2024-02-21T10:25:34;11.18;;;8.07;;
45077;SDS011;60508;42.622;25.416;2024-02-21T10:28:04;15.13;;;9.23;;
45077;SDS011;60508;42.622;25.416;2024-02-21T10:30:51;9.55;;;6.88;;
45077;SDS011;60508;42.622;25.416;2024-02-21T10:33:18;11.68;;;6.38;;
45077;SDS011;60508;42.622;25.416;2024-02-21T10:35:48;13.05;;;6.80;;
45077;SDS011;60508;42.622;25.416;2024-02-21T10:38:15;17.15;;;8.55;;
45077;SDS011;60508;42.622;25.416;2024-02-21T10:41:02;9.43;;;5.70;;
45077;SDS011;60508;42.622;25.416;2024-02-21T10:43:30;18.08;;;7.22;;
45077;SDS011;60508;42.622;25.416;2024-02-21T10:46:25;19.02;;;6.50;;
45077;SDS011;60508;42.622;25.416;2024-02-21T10:48:59;7.93;;;5.93;;
45077;SDS011;60508;42.622;25.416;2024-02-21T10:52:01;9.95;;;5.72;;
45077;SDS011;60508;42.622;25.416;2024-02-21T10:54:43;20.08;;;8.68;;
45077;SDS011;60508;42.622;25.416;2024-02-21T10:57:16;10.93;;;7.30;;
45077;SDS011;60508;42.622;25.416;2024-02-21T10:59:44;7.28;;;5.55;;
45077;SDS011;60508;42.622;25.416;2024-02-21T11:02:31;8.07;;;6.10;;
45077;SDS011;60508;42.622;25.416;2024-02-21T11:04:57;9.60;;;5.82;;
45077;SDS011;60508;42.622;25.416;2024-02-21T11:07:45;9.95;;;5.72;;
45077;SDS011;60508;42.622;25.416;2024-02-21T11:10:24;6.47;;;5.28;;
45077;SDS011;60508;42.622;25.416;2024-02-21T11:13:04;7.05;;;5.57;;
45077;SDS011;60508;42.622;25.416;2024-02-21T11:15:33;10.30;;;5.85;;
45077;SDS011;60508;42.622;25.416;2024-02-21T11:18:00;8.05;;;5.72;;
45077;SDS011;60508;42.622;25.416;2024-02-21T11:20:33;7.53;;;6.25;;
45077;SDS011;60508;42.622;25.416;2024-02-21T11:23:25;21.02;;;12.52;;
45077;SDS011;60508;42.622;25.416;2024-02-21T11:25:52;16.58;;;11.25;;
45077;SDS011;60508;42.622;25.416;2024-02-21T11:28:38;11.60;;;7.18;;
45077;SDS011;60508;42.622;25.416;2024-02-21T11:31:08;13.32;;;9.60;;
45077;SDS011;60508;42.622;25.416;2024-02-21T11:33:39;10.73;;;6.55;;
45077;SDS011;60508;42.622;25.416;2024-02-21T11:36:09;8.05;;;5.82;;
45077;SDS011;60508;42.622;25.416;2024-02-21T11:39:02;14.27;;;6.95;;
45077;SDS011;60508;42.622;25.416;2024-02-21T11:41:30;8.27;;;5.35;;
45077;SDS011;60508;42.622;25.416;2024-02-21T11:44:17;8.45;;;6.10;;
45077;SDS011;60508;42.622;25.416;2024-02-21T11:46:43;7.43;;;5.93;;
45077;SDS011;60508;42.622;25.416;2024-02-21T11:49:30;7.07;;;5.53;;
45077;SDS011;60508;42.622;25.416;2024-02-21T11:51:58;9.80;;;6.30;;
45077;SDS011;60508;42.622;25.416;2024-02-21T11:54:45;8.63;;;5.70;;
45077;SDS011;60508;42.622;25.416;2024-02-21T11:57:12;5.35;;;4.32;;
45077;SDS011;60508;42.622;25.416;2024-02-21T11:59:58;6.20;;;4.30;;
45077;SDS011;60508;42.622;25.416;2024-02-21T12:02:25;6.63;;;4.82;;
45077;SDS011;60508;42.622;25.416;2024-02-21T12:04:52;6.47;;;4.57;;
45077;SDS011;60508;42.622;25.416;2024-02-21T12:07:24;4.20;;;3.42;;
45077;SDS011;60508;42.622;25.416;2024-02-21T12:10:16;7.05;;;4.85;;
45077;SDS011;60508;42.622;25.416;2024-02-21T12:12:43;5.50;;;3.97;;
45077;SDS011;60508;42.622;25.416;2024-02-21T12:15:09;4.57;;;3.67;;
45077;SDS011;60508;42.622;25.416;2024-02-21T12:17:56;6.18;;;4.50;;
45077;SDS011;60508;42.622;25.416;2024-02-21T12:20:22;8.05;;;5.70;;
45077;SDS011;60508;42.622;25.416;2024-02-21T12:23:09;5.03;;;3.90;;
45077;SDS011;60508;42.622;25.416;2024-02-21T12:25:36;6.22;;;4.72;;
45077;SDS011;60508;42.622;25.416;2024-02-21T12:28:25;5.18;;;3.90;;
45077;SDS011;60508;42.622;25.416;2024-02-21T12:30:52;5.22;;;4.50;;
45077;SDS011;60508;42.622;25.416;2024-02-21T12:33:18;6.03;;;4.22;;
45077;SDS011;60508;42.622;25.416;2024-02-21T12:35:45;6.22;;;4.90;;
45077;SDS011;60508;42.622;25.416;2024-02-21T12:38:11;6.72;;;4.53;;
45077;SDS011;60508;42.622;25.416;2024-02-21T12:40:59;6.30;;;4.60;;
45077;SDS011;60508;42.622;25.416;2024-02-21T12:43:27;4.67;;;3.87;;
45077;SDS011;60508;42.622;25.416;2024-02-21T12:45:54;8.73;;;4.50;;
45077;SDS011;60508;42.622;25.416;2024-02-21T12:48:40;42.35;;;16.10;;
45077;SDS011;60508;42.622;25.416;2024-02-21T12:51:07;17.75;;;7.28;;
45077;SDS011;60508;42.622;25.416;2024-02-21T12:53:54;6.35;;;4.93;;
45077;SDS011;60508;42.622;25.416;2024-02-21T12:56:20;6.30;;;4.60;;
45077;SDS011;60508;42.622;25.416;2024-02-21T12:58:47;5.07;;;3.85;;
45077;SDS011;60508;42.622;25.416;2024-02-21T13:01:13;5.32;;;3.80;;
45077;SDS011;60508;42.622;25.416;2024-02-21T13:03:39;3.03;;;2.65;;
45077;SDS011;60508;42.622;25.416;2024-02-21T13:06:26;4.60;;;3.72;;
45077;SDS011;60508;42.622;25.416;2024-02-21T13:08:52;4.38;;;3.60;;
45077;SDS011;60508;42.622;25.416;2024-02-21T13:11:39;3.53;;;2.88;;
45077;SDS011;60508;42.622;25.416;2024-02-21T13:14:06;6.07;;;4.18;;
45077;SDS011;60508;42.622;25.416;2024-02-21T13:16:53;5.47;;;4.03;;
45077;SDS011;60508;42.622;25.416;2024-02-21T13:19:19;4.97;;;3.58;;
45077;SDS011;60508;42.622;25.416;2024-02-21T13:21:47;5.28;;;3.53;;
45077;SDS011;60508;42.622;25.416;2024-02-21T13:24:13;6.18;;;4.25;;
45077;SDS011;60508;42.622;25.416;2024-02-21T13:26:39;7.05;;;3.95;;
45077;SDS011;60508;42.622;25.416;2024-02-21T13:29:26;7.28;;;4.10;;
45077;SDS011;60508;42.622;25.416;2024-02-21T13:31:52;7.93;;;5.75;;
45077;SDS011;60508;42.622;25.416;2024-02-21T13:34:19;14.43;;;8.13;;
45077;SDS011;60508;42.622;25.416;2024-02-21T13:37:05;9.25;;;6.03;;
45077;SDS011;60508;42.622;25.416;2024-02-21T13:39:33;7.07;;;2.90;;
45077;SDS011;60508;42.622;25.416;2024-02-21T13:42:00;11.13;;;6.90;;
45077;SDS011;60508;42.622;25.416;2024-02-21T13:44:27;8.57;;;5.13;;
45077;SDS011;60508;42.622;25.416;2024-02-21T13:46:53;6.20;;;4.97;;
45077;SDS011;60508;42.622;25.416;2024-02-21T13:49:20;6.63;;;4.20;;
45077;SDS011;60508;42.622;25.416;2024-02-21T13:51:46;8.60;;;4.45;;
45077;SDS011;60508;42.622;25.416;2024-02-21T13:54:33;4.80;;;4.10;;
45077;SDS011;60508;42.622;25.416;2024-02-21T13:56:59;6.93;;;5.18;;
45077;SDS011;60508;42.622;25.416;2024-02-21T13:59:25;7.88;;;4.72;;
45077;SDS011;60508;42.622;25.416;2024-02-21T14:01:52;5.20;;;3.92;;
45077;SDS011;60508;42.622;25.416;2024-02-21T14:04:19;4.72;;;3.30;;
45077;SDS011;60508;42.622;25.416;2024-02-21T14:07:06;8.57;;;5.47;;
45077;SDS011;60508;42.622;25.416;2024-02-21T14:09:33;8.50;;;4.97;;
45077;SDS011;60508;42.622;25.416;2024-02-21T14:12:19;8.43;;;5.93;;
45077;SDS011;60508;42.622;25.416;2024-02-21T14:14:47;6.95;;;5.20;;
45077;SDS011;60508;42.622;25.416;2024-02-21T14:17:14;6.72;;;5.28;;
45077;SDS011;60508;42.622;25.416;2024-02-21T14:19:40;10.52;;;5.57;;
45077;SDS011;60508;42.622;25.416;2024-02-21T14:22:07;7.03;;;5.35;;
45077;SDS011;60508;42.622;25.416;2024-02-21T14:24:54;30.88;;;15.23;;
45077;SDS011;60508;42.622;25.416;2024-02-21T14:27:22;9.53;;;4.97;;
45077;SDS011;60508;42.622;25.416;2024-02-21T14:30:09;10.55;;;4.70;;
45077;SDS011;60508;42.622;25.416;2024-02-21T14:32:37;7.35;;;4.80;;
45077;SDS011;60508;42.622;25.416;2024-02-21T14:35:04;6.22;;;4.47;;
45077;SDS011;60508;42.622;25.416;2024-02-21T14:37:31;12.25;;;7.95;;
45077;SDS011;60508;42.622;25.416;2024-02-21T14:39:59;7.55;;;5.05;;
45077;SDS011;60508;42.622;25.416;2024-02-21T14:42:26;12.82;;;6.50;;
45077;SDS011;60508;42.622;25.416;2024-02-21T14:44:52;6.80;;;4.88;;
45077;SDS011;60508;42.622;25.416;2024-02-21T14:47:39;6.90;;;4.80;;
45077;SDS011;60508;42.622;25.416;2024-02-21T14:50:05;5.93;;;4.18;;
45077;SDS011;60508;42.622;25.416;2024-02-21T14:52:53;4.27;;;3.07;;
45077;SDS011;60508;42.622;25.416;2024-02-21T14:55:20;3.97;;;2.78;;
45077;SDS011;60508;42.622;25.416;2024-02-21T14:57:46;6.00;;;5.40;;